Terminal Aerodrome Forecast
Issued by NWS

Home | Current Version | Previous Version | Text Only | Print | Product List | Glossary On
Versions: 1 2 3 4 5 6 7 8 9 10 11 12 13 14 15 16 17 18 19 20 21 22 23 24 25 26 27 28 29 30 31 32 33 34 35 36
000
FTUS43 KDLH 241700
TAFHYR
TAF
KHYR 241738Z 2418/2518 16015G20KT P6SM BKN017
      TEMPO 2418/2420 SCT017 OVC040
     FM242000 17009KT P6SM BKN050
     FM250100 VRB03KT P6SM VCTS SCT020CB BKN050
      TEMPO 2501/2505 3SM TSRA OVC013CB
     FM251500 23007KT P6SM SCT025=

USA.gov is the U.S. government's official web portal to all federal, state and local government web resources and services.